4 De Coeur — FW6599 — position and weather

sailwx.info

Track history (hours):
 
Tides and Currents Weather Stations Pressure Air Temp Water Temp Dewpoint Dewpoint Depression Visibility Wind Speed Wind Dir Waves Ship Positions

4 De Coeur

Last reported at 2017-Jun-17 16:32 UTC. Time now 2017-Jun-25 05:22 UTC.
Position N 47°33' W 002°54'.

Length 11 m.

Type: Pleasure craft. MMSI: 227523340.

Date/timePositionNaut miles runAvg speedWind from/ knotsBaromVisibWave heightAir tempDewpointWater temp
2017-Jun-17 16:32N 47°33' W 002°54'0 0.0
2017-Jun-17 16:29N 47°33' W 002°54'0 0.0
2017-Jun-17 15:59N 47°33' W 002°54'0 0.0
2017-Jun-17 15:29N 47°33' W 002°54'0 0.0
2017-Jun-17 14:59N 47°33' W 002°54'0 0.0
2017-Jun-17 14:29N 47°33' W 002°54'0 0.0
2017-Jun-17 13:29N 47°33' W 002°54'0 0.0
2017-Jun-17 12:59N 47°33' W 002°54'0 0.0
2017-Jun-16 11:29N 47°33' W 002°54'0 0.2
2017-Jun-16 11:00N 47°33' W 002°54'1 2.0
2017-Jun-16 10:30N 47°32' W 002°54'2 3.7
2017-Jun-16 10:00N 47°30' W 002°53'2 3.4
2017-Jun-16 09:30N 47°29' W 002°51'2 4.8
2017-Jun-16 09:00N 47°28' W 002°48'3 5.1
2017-Jun-16 08:30N 47°27' W 002°44'3 5.5
2017-Jun-16 08:00N 47°25' W 002°41'3 5.3
2017-Jun-16 07:30N 47°24' W 002°38'4 6.0
2017-Jun-16 06:54N 47°22' W 002°33'2 0.1
2017-Jun-15 11:45N 47°21' W 002°31'0 0.1
2017-Jun-15 11:27N 47°21' W 002°31'2 3.2
2017-Jun-15 10:46N 47°19' W 002°33'4 3.3
2017-Jun-15 09:25N 47°15' W 002°30'14 4.0
2017-Jun-15 06:00N 47°07' W 002°14'3 4.8
2017-Jun-15 05:29N 47°07' W 002°10'2 4.1
2017-Jun-15 05:00N 47°06' W 002°07'0 0.6
2017-Jun-15 04:10N 47°06' W 002°07'0 0.0
2017-Jun-15 03:58N 47°06' W 002°07'0 0.0
2017-Jun-15 00:40N 47°06' W 002°07'0 0.0
2017-Jun-15 00:29N 47°06' W 002°07'0 0.0
2017-Jun-14 22:11N 47°06' W 002°07'0 0.0
2017-Jun-14 21:59N 47°06' W 002°07'0 0.0
2017-Jun-14 20:59N 47°06' W 002°07'0 0.0
2017-Jun-14 20:23N 47°06' W 002°07'30 0.8
2017-Jun-13 08:12N 46°36' W 002°04'2 7.2
2017-Jun-13 07:59N 46°35' W 002°02'3 7.1
2017-Jun-13 07:30N 46°33' W 001°58'3 6.8
2017-Jun-13 07:00N 46°31' W 001°54'3 7.0
2017-Jun-13 06:30N 46°29' W 001°50'2 4.3
2017-Jun-13 06:00N 46°29' W 001°47'1 1.3
2017-Jun-13 05:28N 46°30' W 001°48'0 0.7
2017-Jun-13 05:00N 46°30' W 001°47'0 0.0
2017-Jun-12 19:38N 46°30' W 001°47'0 0.0
2017-Jun-12 19:29N 46°30' W 001°47'1 1.3
2017-Jun-12 19:00N 46°29' W 001°47'2 4.6
2017-Jun-12 18:31N 46°29' W 001°51'3 6.8
2017-Jun-12 18:01N 46°31' W 001°54'4 7.0
2017-Jun-12 17:31N 46°34' W 001°57'3 6.8
2017-Jun-12 17:00N 46°37' W 002°01'49 5.5
2017-Jun-12 08:03N 47°16' W 002°44'0 5.4
2017-Jun-12 08:00N 47°16' W 002°44'3 5.3
2017-Jun-12 07:27N 47°19' W 002°46'2 5.3
2017-Jun-12 07:00N 47°21' W 002°48'3 5.6
2017-Jun-12 06:30N 47°23' W 002°50'3 6.2
2017-Jun-12 06:00N 47°26' W 002°52'3 5.1
2017-Jun-12 05:30N 47°28' W 002°53'3 5.8
2017-Jun-12 05:00N 47°31' W 002°54'1 2.6
2017-Jun-12 04:30N 47°33' W 002°54'0 0.0
2017-Jun-11 18:39N 47°33' W 002°54'0 0.0
2017-Jun-11 15:34N 47°33' W 002°54'0 0.0
2017-Jun-11 15:28N 47°33' W 002°54'0 0.0
2017-Jun-11 14:58N 47°33' W 002°54'  
Track history (hours):
 
Tides and Currents Weather Stations Pressure Air Temp Water Temp Dewpoint Dewpoint Depression Visibility Wind Speed Wind Dir Waves Ship Positions

4 De Coeur

Last reported at 2017-Jun-17 16:32 UTC. Time now 2017-Jun-25 05:22 UTC.
Position N 47°33' W 002°54'.

Length 11 m.

Type: Pleasure craft. MMSI: 227523340.

Date/timePositionNaut miles runAvg speedWind from/ knotsBaromVisibWave heightAir tempDewpointWater temp
2017-Jun-17 16:32N 47°33' W 002°54'0 0.0
2017-Jun-17 16:29N 47°33' W 002°54'0 0.0
2017-Jun-17 15:59N 47°33' W 002°54'0 0.0
2017-Jun-17 15:29N 47°33' W 002°54'0 0.0
2017-Jun-17 14:59N 47°33' W 002°54'0 0.0
2017-Jun-17 14:29N 47°33' W 002°54'0 0.0
2017-Jun-17 13:29N 47°33' W 002°54'0 0.0
2017-Jun-17 12:59N 47°33' W 002°54'0 0.0
2017-Jun-16 11:29N 47°33' W 002°54'0 0.2
2017-Jun-16 11:00N 47°33' W 002°54'1 2.0
2017-Jun-16 10:30N 47°32' W 002°54'2 3.7
2017-Jun-16 10:00N 47°30' W 002°53'2 3.4
2017-Jun-16 09:30N 47°29' W 002°51'2 4.8
2017-Jun-16 09:00N 47°28' W 002°48'3 5.1
2017-Jun-16 08:30N 47°27' W 002°44'3 5.5
2017-Jun-16 08:00N 47°25' W 002°41'3 5.3
2017-Jun-16 07:30N 47°24' W 002°38'4 6.0
2017-Jun-16 06:54N 47°22' W 002°33'2 0.1
2017-Jun-15 11:45N 47°21' W 002°31'0 0.1
2017-Jun-15 11:27N 47°21' W 002°31'2 3.2
2017-Jun-15 10:46N 47°19' W 002°33'4 3.3
2017-Jun-15 09:25N 47°15' W 002°30'14 4.0
2017-Jun-15 06:00N 47°07' W 002°14'3 4.8
2017-Jun-15 05:29N 47°07' W 002°10'2 4.1
2017-Jun-15 05:00N 47°06' W 002°07'0 0.6
2017-Jun-15 04:10N 47°06' W 002°07'0 0.0
2017-Jun-15 03:58N 47°06' W 002°07'0 0.0
2017-Jun-15 00:40N 47°06' W 002°07'0 0.0
2017-Jun-15 00:29N 47°06' W 002°07'0 0.0
2017-Jun-14 22:11N 47°06' W 002°07'0 0.0
2017-Jun-14 21:59N 47°06' W 002°07'0 0.0
2017-Jun-14 20:59N 47°06' W 002°07'0 0.0
2017-Jun-14 20:23N 47°06' W 002°07'30 0.8
2017-Jun-13 08:12N 46°36' W 002°04'2 7.2
2017-Jun-13 07:59N 46°35' W 002°02'3 7.1
2017-Jun-13 07:30N 46°33' W 001°58'3 6.8
2017-Jun-13 07:00N 46°31' W 001°54'3 7.0
2017-Jun-13 06:30N 46°29' W 001°50'2 4.3
2017-Jun-13 06:00N 46°29' W 001°47'1 1.3
2017-Jun-13 05:28N 46°30' W 001°48'0 0.7
2017-Jun-13 05:00N 46°30' W 001°47'0 0.0
2017-Jun-12 19:38N 46°30' W 001°47'0 0.0
2017-Jun-12 19:29N 46°30' W 001°47'1 1.3
2017-Jun-12 19:00N 46°29' W 001°47'2 4.6
2017-Jun-12 18:31N 46°29' W 001°51'3 6.8
2017-Jun-12 18:01N 46°31' W 001°54'4 7.0
2017-Jun-12 17:31N 46°34' W 001°57'3 6.8
2017-Jun-12 17:00N 46°37' W 002°01'49 5.5
2017-Jun-12 08:03N 47°16' W 002°44'0 5.4
2017-Jun-12 08:00N 47°16' W 002°44'3 5.3
2017-Jun-12 07:27N 47°19' W 002°46'2 5.3
2017-Jun-12 07:00N 47°21' W 002°48'3 5.6
2017-Jun-12 06:30N 47°23' W 002°50'3 6.2
2017-Jun-12 06:00N 47°26' W 002°52'3 5.1
2017-Jun-12 05:30N 47°28' W 002°53'3 5.8
2017-Jun-12 05:00N 47°31' W 002°54'1 2.6
2017-Jun-12 04:30N 47°33' W 002°54'0 0.0
2017-Jun-11 18:39N 47°33' W 002°54'0 0.0
2017-Jun-11 15:34N 47°33' W 002°54'0 0.0
2017-Jun-11 15:28N 47°33' W 002°54'0 0.0
2017-Jun-11 14:58N 47°33' W 002°54'  

Dump ship's entire track history